Plano, Illinois
Current Conditions -  °F | °C
As of 12:52 AM on Sunday 21 Dec 2014 (Local Time) from KARR Reporting Station
Haze Haze  
Wind Chill: 27°   Ceiling: 2000
Heat Index: 33°   Visibility: 6mi
Dew Point: 27°   Wind: 7mph
Humidity: 78%   Direction: 150°SSE
Pressure: 30.23"   Gusts: NA
Location:  41.66°N, 88.54°W
Report Text: KARR 210652Z AUTO 15006KT 6SM HZ OVC020 01/M03 A3023 RMK AO2 SLP244 T00061028
Loading
Personal Weather Stations






























Interactive Weather Map New forecast layout! Learn more

10-Day Weather Forecast

Advertisements
Track Severe Weather on mobile